sensor_id;sensor_type;location;lat;lon;timestamp;P1;durP1;ratioP1;P2;durP2;ratioP2
26951;SDS011;14507;52.418;13.398;2024-02-28T00:00:34;44.67;;;19.90;;
26951;SDS011;14507;52.418;13.398;2024-02-28T00:02:59;46.22;;;19.92;;
26951;SDS011;14507;52.418;13.398;2024-02-28T00:05:25;40.55;;;18.67;;
26951;SDS011;14507;52.418;13.398;2024-02-28T00:07:50;44.78;;;21.42;;
26951;SDS011;14507;52.418;13.398;2024-02-28T00:10:17;44.42;;;21.88;;
26951;SDS011;14507;52.418;13.398;2024-02-28T00:12:43;44.55;;;19.90;;
26951;SDS011;14507;52.418;13.398;2024-02-28T00:15:09;49.20;;;22.00;;
26951;SDS011;14507;52.418;13.398;2024-02-28T00:17:39;47.60;;;21.85;;
26951;SDS011;14507;52.418;13.398;2024-02-28T00:20:08;49.05;;;22.50;;
26951;SDS011;14507;52.418;13.398;2024-02-28T00:22:35;49.35;;;23.90;;
26951;SDS011;14507;52.418;13.398;2024-02-28T00:25:04;41.05;;;20.60;;
26951;SDS011;14507;52.418;13.398;2024-02-28T00:27:31;44.65;;;21.00;;
26951;SDS011;14507;52.418;13.398;2024-02-28T00:29:58;41.95;;;20.02;;
26951;SDS011;14507;52.418;13.398;2024-02-28T00:32:24;36.78;;;17.63;;
26951;SDS011;14507;52.418;13.398;2024-02-28T00:34:49;34.13;;;17.05;;
26951;SDS011;14507;52.418;13.398;2024-02-28T00:37:15;34.38;;;17.23;;
26951;SDS011;14507;52.418;13.398;2024-02-28T00:39:42;35.05;;;17.38;;
26951;SDS011;14507;52.418;13.398;2024-02-28T00:42:09;35.00;;;16.95;;
26951;SDS011;14507;52.418;13.398;2024-02-28T00:44:35;43.05;;;20.02;;
26951;SDS011;14507;52.418;13.398;2024-02-28T00:47:00;41.90;;;19.35;;
26951;SDS011;14507;52.418;13.398;2024-02-28T00:49:26;44.92;;;18.77;;
26951;SDS011;14507;52.418;13.398;2024-02-28T00:51:52;37.20;;;18.40;;
26951;SDS011;14507;52.418;13.398;2024-02-28T00:54:17;38.63;;;18.45;;
26951;SDS011;14507;52.418;13.398;2024-02-28T00:56:43;42.45;;;19.48;;
26951;SDS011;14507;52.418;13.398;2024-02-28T00:59:09;48.03;;;21.15;;
26951;SDS011;14507;52.418;13.398;2024-02-28T01:01:37;43.80;;;20.05;;
26951;SDS011;14507;52.418;13.398;2024-02-28T01:04:03;42.75;;;19.80;;
26951;SDS011;14507;52.418;13.398;2024-02-28T01:06:29;45.38;;;20.63;;
26951;SDS011;14507;52.418;13.398;2024-02-28T01:08:54;44.00;;;19.33;;
26951;SDS011;14507;52.418;13.398;2024-02-28T01:11:20;44.25;;;18.55;;
26951;SDS011;14507;52.418;13.398;2024-02-28T01:13:46;45.15;;;19.40;;
26951;SDS011;14507;52.418;13.398;2024-02-28T01:16:11;38.38;;;18.10;;
26951;SDS011;14507;52.418;13.398;2024-02-28T01:18:37;48.55;;;17.85;;
26951;SDS011;14507;52.418;13.398;2024-02-28T01:21:02;40.20;;;18.13;;
26951;SDS011;14507;52.418;13.398;2024-02-28T01:23:28;39.72;;;18.33;;
26951;SDS011;14507;52.418;13.398;2024-02-28T01:25:54;37.70;;;17.73;;
26951;SDS011;14507;52.418;13.398;2024-02-28T01:28:19;37.08;;;17.08;;
26951;SDS011;14507;52.418;13.398;2024-02-28T01:30:45;46.83;;;20.55;;
26951;SDS011;14507;52.418;13.398;2024-02-28T01:33:11;46.15;;;21.13;;
26951;SDS011;14507;52.418;13.398;2024-02-28T01:35:37;48.60;;;22.17;;
26951;SDS011;14507;52.418;13.398;2024-02-28T01:38:03;49.67;;;20.38;;
26951;SDS011;14507;52.418;13.398;2024-02-28T01:40:29;38.58;;;18.08;;
26951;SDS011;14507;52.418;13.398;2024-02-28T01:42:54;48.70;;;20.13;;
26951;SDS011;14507;52.418;13.398;2024-02-28T01:45:20;40.40;;;20.27;;
26951;SDS011;14507;52.418;13.398;2024-02-28T01:47:45;39.42;;;18.05;;
26951;SDS011;14507;52.418;13.398;2024-02-28T01:50:11;46.80;;;21.90;;
26951;SDS011;14507;52.418;13.398;2024-02-28T01:52:37;50.42;;;21.90;;
26951;SDS011;14507;52.418;13.398;2024-02-28T01:55:04;49.38;;;21.65;;
26951;SDS011;14507;52.418;13.398;2024-02-28T01:57:31;51.43;;;22.43;;
26951;SDS011;14507;52.418;13.398;2024-02-28T01:59:57;50.08;;;20.73;;
26951;SDS011;14507;52.418;13.398;2024-02-28T02:02:23;43.33;;;20.42;;
26951;SDS011;14507;52.418;13.398;2024-02-28T02:04:49;45.60;;;19.50;;
26951;SDS011;14507;52.418;13.398;2024-02-28T02:07:18;42.83;;;19.73;;
26951;SDS011;14507;52.418;13.398;2024-02-28T02:09:44;48.95;;;20.42;;
26951;SDS011;14507;52.418;13.398;2024-02-28T02:12:09;45.50;;;20.70;;
26951;SDS011;14507;52.418;13.398;2024-02-28T02:14:35;44.78;;;19.30;;
26951;SDS011;14507;52.418;13.398;2024-02-28T02:17:01;43.85;;;19.38;;
26951;SDS011;14507;52.418;13.398;2024-02-28T02:19:27;43.42;;;19.20;;
26951;SDS011;14507;52.418;13.398;2024-02-28T02:21:53;50.40;;;21.90;;
26951;SDS011;14507;52.418;13.398;2024-02-28T02:24:22;61.10;;;25.25;;
26951;SDS011;14507;52.418;13.398;2024-02-28T02:26:47;56.65;;;24.60;;
26951;SDS011;14507;52.418;13.398;2024-02-28T02:29:16;56.13;;;24.50;;
26951;SDS011;14507;52.418;13.398;2024-02-28T02:31:42;53.33;;;25.67;;
26951;SDS011;14507;52.418;13.398;2024-02-28T02:34:07;56.22;;;24.65;;
26951;SDS011;14507;52.418;13.398;2024-02-28T02:36:33;55.25;;;24.67;;
26951;SDS011;14507;52.418;13.398;2024-02-28T02:38:58;53.45;;;24.02;;
26951;SDS011;14507;52.418;13.398;2024-02-28T02:41:24;57.95;;;23.90;;
26951;SDS011;14507;52.418;13.398;2024-02-28T02:43:50;50.40;;;22.48;;
26951;SDS011;14507;52.418;13.398;2024-02-28T02:46:15;51.58;;;21.75;;
26951;SDS011;14507;52.418;13.398;2024-02-28T02:48:41;50.53;;;22.17;;
26951;SDS011;14507;52.418;13.398;2024-02-28T02:51:07;45.92;;;21.60;;
26951;SDS011;14507;52.418;13.398;2024-02-28T02:53:32;53.50;;;22.05;;
26951;SDS011;14507;52.418;13.398;2024-02-28T02:55:58;52.40;;;24.15;;
26951;SDS011;14507;52.418;13.398;2024-02-28T02:58:23;56.40;;;24.73;;
26951;SDS011;14507;52.418;13.398;2024-02-28T03:00:49;52.40;;;23.10;;
26951;SDS011;14507;52.418;13.398;2024-02-28T03:03:15;49.33;;;22.05;;
26951;SDS011;14507;52.418;13.398;2024-02-28T03:05:40;55.08;;;24.63;;
26951;SDS011;14507;52.418;13.398;2024-02-28T03:08:06;42.55;;;20.13;;
26951;SDS011;14507;52.418;13.398;2024-02-28T03:10:32;38.72;;;17.45;;
26951;SDS011;14507;52.418;13.398;2024-02-28T03:12:58;33.72;;;15.65;;
26951;SDS011;14507;52.418;13.398;2024-02-28T03:15:23;30.90;;;15.25;;
26951;SDS011;14507;52.418;13.398;2024-02-28T03:17:49;27.90;;;13.88;;
26951;SDS011;14507;52.418;13.398;2024-02-28T03:20:14;26.70;;;12.48;;
26951;SDS011;14507;52.418;13.398;2024-02-28T03:22:40;26.90;;;12.77;;
26951;SDS011;14507;52.418;13.398;2024-02-28T03:25:06;27.10;;;12.77;;
26951;SDS011;14507;52.418;13.398;2024-02-28T03:27:32;26.05;;;12.32;;
26951;SDS011;14507;52.418;13.398;2024-02-28T03:29:58;27.58;;;12.35;;
26951;SDS011;14507;52.418;13.398;2024-02-28T03:32:23;23.63;;;12.15;;
26951;SDS011;14507;52.418;13.398;2024-02-28T03:34:49;25.83;;;12.10;;
26951;SDS011;14507;52.418;13.398;2024-02-28T03:37:14;25.40;;;11.25;;
26951;SDS011;14507;52.418;13.398;2024-02-28T03:39:40;26.92;;;12.80;;
26951;SDS011;14507;52.418;13.398;2024-02-28T03:42:06;24.77;;;11.65;;
26951;SDS011;14507;52.418;13.398;2024-02-28T03:44:31;21.67;;;10.32;;
26951;SDS011;14507;52.418;13.398;2024-02-28T03:46:57;24.30;;;10.50;;
26951;SDS011;14507;52.418;13.398;2024-02-28T03:49:23;24.27;;;10.13;;
26951;SDS011;14507;52.418;13.398;2024-02-28T03:51:48;18.48;;;9.57;;
26951;SDS011;14507;52.418;13.398;2024-02-28T03:54:14;19.10;;;9.27;;
26951;SDS011;14507;52.418;13.398;2024-02-28T03:56:39;18.63;;;9.40;;
26951;SDS011;14507;52.418;13.398;2024-02-28T03:59:05;19.52;;;9.60;;
26951;SDS011;14507;52.418;13.398;2024-02-28T04:01:31;19.83;;;9.80;;
26951;SDS011;14507;52.418;13.398;2024-02-28T04:03:57;19.98;;;9.30;;
26951;SDS011;14507;52.418;13.398;2024-02-28T04:06:22;19.27;;;10.05;;
26951;SDS011;14507;52.418;13.398;2024-02-28T04:08:48;20.13;;;9.48;;
26951;SDS011;14507;52.418;13.398;2024-02-28T04:11:14;19.98;;;8.93;;
26951;SDS011;14507;52.418;13.398;2024-02-28T04:13:39;16.88;;;8.25;;
26951;SDS011;14507;52.418;13.398;2024-02-28T04:16:06;18.48;;;8.35;;
26951;SDS011;14507;52.418;13.398;2024-02-28T04:18:32;16.67;;;8.43;;
26951;SDS011;14507;52.418;13.398;2024-02-28T04:20:58;19.08;;;9.63;;
26951;SDS011;14507;52.418;13.398;2024-02-28T04:23:24;20.00;;;9.40;;
26951;SDS011;14507;52.418;13.398;2024-02-28T04:25:49;19.80;;;8.93;;
26951;SDS011;14507;52.418;13.398;2024-02-28T04:28:15;20.50;;;9.18;;
26951;SDS011;14507;52.418;13.398;2024-02-28T04:30:41;17.73;;;9.68;;
26951;SDS011;14507;52.418;13.398;2024-02-28T04:33:07;22.48;;;10.07;;
26951;SDS011;14507;52.418;13.398;2024-02-28T04:35:33;16.67;;;9.18;;
26951;SDS011;14507;52.418;13.398;2024-02-28T04:37:59;19.73;;;9.57;;
26951;SDS011;14507;52.418;13.398;2024-02-28T04:40:24;18.48;;;9.95;;
26951;SDS011;14507;52.418;13.398;2024-02-28T04:42:50;18.58;;;10.35;;
26951;SDS011;14507;52.418;13.398;2024-02-28T04:45:16;18.60;;;9.68;;
26951;SDS011;14507;52.418;13.398;2024-02-28T04:47:42;15.32;;;8.25;;
26951;SDS011;14507;52.418;13.398;2024-02-28T04:50:08;18.33;;;9.20;;
26951;SDS011;14507;52.418;13.398;2024-02-28T04:52:34;18.77;;;9.75;;
26951;SDS011;14507;52.418;13.398;2024-02-28T04:55:00;17.90;;;9.75;;
26951;SDS011;14507;52.418;13.398;2024-02-28T04:57:26;20.83;;;10.18;;
26951;SDS011;14507;52.418;13.398;2024-02-28T04:59:52;17.40;;;9.23;;
26951;SDS011;14507;52.418;13.398;2024-02-28T05:02:18;18.45;;;9.40;;
26951;SDS011;14507;52.418;13.398;2024-02-28T05:04:44;19.35;;;9.48;;
26951;SDS011;14507;52.418;13.398;2024-02-28T05:07:09;20.20;;;10.13;;
26951;SDS011;14507;52.418;13.398;2024-02-28T05:09:35;22.08;;;10.55;;
26951;SDS011;14507;52.418;13.398;2024-02-28T05:12:01;20.23;;;10.35;;
26951;SDS011;14507;52.418;13.398;2024-02-28T05:14:27;22.73;;;11.90;;
26951;SDS011;14507;52.418;13.398;2024-02-28T05:16:52;21.88;;;11.23;;
26951;SDS011;14507;52.418;13.398;2024-02-28T05:19:18;19.30;;;9.38;;
26951;SDS011;14507;52.418;13.398;2024-02-28T05:21:44;22.88;;;10.75;;
26951;SDS011;14507;52.418;13.398;2024-02-28T05:24:10;19.27;;;10.32;;
26951;SDS011;14507;52.418;13.398;2024-02-28T05:26:36;23.25;;;11.75;;
26951;SDS011;14507;52.418;13.398;2024-02-28T05:29:05;24.42;;;11.48;;
26951;SDS011;14507;52.418;13.398;2024-02-28T05:31:31;22.80;;;12.02;;
26951;SDS011;14507;52.418;13.398;2024-02-28T05:33:57;21.75;;;11.32;;
26951;SDS011;14507;52.418;13.398;2024-02-28T05:36:24;21.20;;;10.88;;
26951;SDS011;14507;52.418;13.398;2024-02-28T05:38:54;20.38;;;11.05;;
26951;SDS011;14507;52.418;13.398;2024-02-28T05:41:20;24.30;;;11.27;;
26951;SDS011;14507;52.418;13.398;2024-02-28T05:43:47;25.25;;;11.98;;
26951;SDS011;14507;52.418;13.398;2024-02-28T05:46:13;23.02;;;11.98;;
26951;SDS011;14507;52.418;13.398;2024-02-28T05:48:45;21.17;;;11.85;;
26951;SDS011;14507;52.418;13.398;2024-02-28T05:51:11;25.50;;;13.45;;
26951;SDS011;14507;52.418;13.398;2024-02-28T05:53:38;26.83;;;13.38;;
26951;SDS011;14507;52.418;13.398;2024-02-28T05:56:04;25.45;;;13.25;;
26951;SDS011;14507;52.418;13.398;2024-02-28T05:58:38;22.63;;;11.68;;
26951;SDS011;14507;52.418;13.398;2024-02-28T06:01:04;25.33;;;12.32;;
26951;SDS011;14507;52.418;13.398;2024-02-28T06:03:29;22.77;;;12.25;;
26951;SDS011;14507;52.418;13.398;2024-02-28T06:05:55;24.35;;;11.80;;
26951;SDS011;14507;52.418;13.398;2024-02-28T06:08:22;21.08;;;10.75;;
26951;SDS011;14507;52.418;13.398;2024-02-28T06:10:48;24.92;;;11.50;;
26951;SDS011;14507;52.418;13.398;2024-02-28T06:13:14;22.83;;;10.52;;
26951;SDS011;14507;52.418;13.398;2024-02-28T06:15:39;23.20;;;11.48;;
26951;SDS011;14507;52.418;13.398;2024-02-28T06:18:05;19.52;;;10.50;;
26951;SDS011;14507;52.418;13.398;2024-02-28T06:20:30;22.30;;;10.55;;
26951;SDS011;14507;52.418;13.398;2024-02-28T06:22:56;21.02;;;10.80;;
26951;SDS011;14507;52.418;13.398;2024-02-28T06:25:22;19.60;;;10.52;;
26951;SDS011;14507;52.418;13.398;2024-02-28T06:27:49;20.23;;;10.75;;
26951;SDS011;14507;52.418;13.398;2024-02-28T06:30:15;19.77;;;9.90;;
26951;SDS011;14507;52.418;13.398;2024-02-28T06:32:44;23.73;;;11.45;;
26951;SDS011;14507;52.418;13.398;2024-02-28T06:35:10;19.25;;;10.52;;
26951;SDS011;14507;52.418;13.398;2024-02-28T06:37:35;22.70;;;11.10;;
26951;SDS011;14507;52.418;13.398;2024-02-28T06:40:02;20.60;;;10.48;;
26951;SDS011;14507;52.418;13.398;2024-02-28T06:42:33;18.20;;;10.15;;
26951;SDS011;14507;52.418;13.398;2024-02-28T06:45:01;19.65;;;10.70;;
26951;SDS011;14507;52.418;13.398;2024-02-28T06:47:27;16.55;;;9.32;;
26951;SDS011;14507;52.418;13.398;2024-02-28T06:49:53;19.00;;;9.63;;
26951;SDS011;14507;52.418;13.398;2024-02-28T06:52:18;20.65;;;11.23;;
26951;SDS011;14507;52.418;13.398;2024-02-28T06:54:44;17.55;;;9.10;;
26951;SDS011;14507;52.418;13.398;2024-02-28T06:57:10;15.65;;;8.20;;
26951;SDS011;14507;52.418;13.398;2024-02-28T06:59:36;16.27;;;8.95;;
26951;SDS011;14507;52.418;13.398;2024-02-28T07:02:02;14.60;;;8.43;;
26951;SDS011;14507;52.418;13.398;2024-02-28T07:04:27;14.80;;;8.15;;
26951;SDS011;14507;52.418;13.398;2024-02-28T07:06:53;15.85;;;7.82;;
26951;SDS011;14507;52.418;13.398;2024-02-28T07:09:18;16.17;;;8.18;;
26951;SDS011;14507;52.418;13.398;2024-02-28T07:11:44;15.60;;;8.38;;
26951;SDS011;14507;52.418;13.398;2024-02-28T07:14:10;17.55;;;8.90;;
26951;SDS011;14507;52.418;13.398;2024-02-28T07:16:35;16.35;;;8.45;;
26951;SDS011;14507;52.418;13.398;2024-02-28T07:19:01;14.75;;;8.18;;
26951;SDS011;14507;52.418;13.398;2024-02-28T07:21:27;14.23;;;7.85;;
26951;SDS011;14507;52.418;13.398;2024-02-28T07:23:53;13.90;;;6.82;;
26951;SDS011;14507;52.418;13.398;2024-02-28T07:26:19;14.38;;;7.00;;
26951;SDS011;14507;52.418;13.398;2024-02-28T07:28:44;11.52;;;6.78;;
26951;SDS011;14507;52.418;13.398;2024-02-28T07:31:20;14.27;;;6.63;;
26951;SDS011;14507;52.418;13.398;2024-02-28T07:33:47;13.18;;;7.15;;
26951;SDS011;14507;52.418;13.398;2024-02-28T07:36:12;12.80;;;7.13;;
26951;SDS011;14507;52.418;13.398;2024-02-28T07:38:38;12.10;;;6.80;;
26951;SDS011;14507;52.418;13.398;2024-02-28T07:41:07;14.77;;;7.50;;
26951;SDS011;14507;52.418;13.398;2024-02-28T07:43:33;13.88;;;7.28;;
26951;SDS011;14507;52.418;13.398;2024-02-28T07:46:02;13.90;;;6.60;;
26951;SDS011;14507;52.418;13.398;2024-02-28T07:48:35;13.15;;;7.03;;
26951;SDS011;14507;52.418;13.398;2024-02-28T07:51:03;14.15;;;7.07;;
26951;SDS011;14507;52.418;13.398;2024-02-28T07:53:30;13.23;;;7.00;;
26951;SDS011;14507;52.418;13.398;2024-02-28T07:55:55;14.02;;;7.72;;
26951;SDS011;14507;52.418;13.398;2024-02-28T07:58:21;18.38;;;9.13;;
26951;SDS011;14507;52.418;13.398;2024-02-28T08:00:49;14.98;;;8.00;;
26951;SDS011;14507;52.418;13.398;2024-02-28T08:03:17;11.95;;;7.10;;
26951;SDS011;14507;52.418;13.398;2024-02-28T08:05:43;12.65;;;7.00;;
26951;SDS011;14507;52.418;13.398;2024-02-28T08:08:09;13.38;;;7.47;;
26951;SDS011;14507;52.418;13.398;2024-02-28T08:10:36;12.63;;;6.82;;
26951;SDS011;14507;52.418;13.398;2024-02-28T08:13:02;12.90;;;7.70;;
26951;SDS011;14507;52.418;13.398;2024-02-28T08:15:28;19.98;;;7.90;;
26951;SDS011;14507;52.418;13.398;2024-02-28T08:17:54;13.48;;;6.90;;
26951;SDS011;14507;52.418;13.398;2024-02-28T08:20:20;12.68;;;7.20;;
26951;SDS011;14507;52.418;13.398;2024-02-28T08:22:46;14.38;;;6.43;;
26951;SDS011;14507;52.418;13.398;2024-02-28T08:25:12;14.38;;;7.88;;
26951;SDS011;14507;52.418;13.398;2024-02-28T08:27:38;13.65;;;7.55;;
26951;SDS011;14507;52.418;13.398;2024-02-28T08:30:04;18.73;;;9.02;;
26951;SDS011;14507;52.418;13.398;2024-02-28T08:32:33;20.15;;;9.95;;
26951;SDS011;14507;52.418;13.398;2024-02-28T08:34:59;18.35;;;8.95;;
26951;SDS011;14507;52.418;13.398;2024-02-28T08:37:25;21.40;;;9.70;;
26951;SDS011;14507;52.418;13.398;2024-02-28T08:42:22;12.13;;;6.57;;
26951;SDS011;14507;52.418;13.398;2024-02-28T08:44:51;14.55;;;6.40;;
26951;SDS011;14507;52.418;13.398;2024-02-28T08:47:22;15.65;;;7.75;;
26951;SDS011;14507;52.418;13.398;2024-02-28T08:49:48;14.15;;;7.80;;
26951;SDS011;14507;52.418;13.398;2024-02-28T08:52:14;14.45;;;7.57;;
26951;SDS011;14507;52.418;13.398;2024-02-28T08:54:39;14.95;;;8.80;;
26951;SDS011;14507;52.418;13.398;2024-02-28T08:57:05;17.17;;;9.20;;
26951;SDS011;14507;52.418;13.398;2024-02-28T08:59:30;21.83;;;10.18;;
26951;SDS011;14507;52.418;13.398;2024-02-28T09:01:56;18.50;;;10.13;;
26951;SDS011;14507;52.418;13.398;2024-02-28T09:04:22;20.98;;;9.98;;
26951;SDS011;14507;52.418;13.398;2024-02-28T09:06:47;19.75;;;9.85;;
26951;SDS011;14507;52.418;13.398;2024-02-28T09:09:13;18.08;;;9.55;;
26951;SDS011;14507;52.418;13.398;2024-02-28T09:11:39;18.67;;;9.82;;
26951;SDS011;14507;52.418;13.398;2024-02-28T09:14:04;17.60;;;9.18;;
26951;SDS011;14507;52.418;13.398;2024-02-28T09:16:30;21.92;;;10.68;;
26951;SDS011;14507;52.418;13.398;2024-02-28T09:18:56;18.77;;;10.10;;
26951;SDS011;14507;52.418;13.398;2024-02-28T09:21:21;19.60;;;9.55;;
26951;SDS011;14507;52.418;13.398;2024-02-28T09:23:47;20.63;;;9.63;;
26951;SDS011;14507;52.418;13.398;2024-02-28T09:26:12;22.40;;;10.02;;
26951;SDS011;14507;52.418;13.398;2024-02-28T09:28:38;22.23;;;11.35;;
26951;SDS011;14507;52.418;13.398;2024-02-28T09:31:04;20.75;;;10.52;;
26951;SDS011;14507;52.418;13.398;2024-02-28T09:33:29;23.08;;;11.80;;
26951;SDS011;14507;52.418;13.398;2024-02-28T09:35:55;24.13;;;11.93;;
26951;SDS011;14507;52.418;13.398;2024-02-28T09:38:20;24.27;;;11.90;;
26951;SDS011;14507;52.418;13.398;2024-02-28T09:40:46;20.35;;;10.82;;
26951;SDS011;14507;52.418;13.398;2024-02-28T09:43:18;21.23;;;10.98;;
26951;SDS011;14507;52.418;13.398;2024-02-28T09:45:50;22.77;;;11.98;;
26951;SDS011;14507;52.418;13.398;2024-02-28T09:48:16;21.73;;;11.25;;
26951;SDS011;14507;52.418;13.398;2024-02-28T09:50:43;25.38;;;13.02;;
26951;SDS011;14507;52.418;13.398;2024-02-28T09:53:08;28.27;;;13.18;;
26951;SDS011;14507;52.418;13.398;2024-02-28T09:55:34;25.42;;;12.25;;
26951;SDS011;14507;52.418;13.398;2024-02-28T09:58:00;28.38;;;13.75;;
26951;SDS011;14507;52.418;13.398;2024-02-28T10:00:27;26.33;;;13.00;;
26951;SDS011;14507;52.418;13.398;2024-02-28T10:02:53;27.85;;;12.35;;
26951;SDS011;14507;52.418;13.398;2024-02-28T10:05:20;29.80;;;14.18;;
26951;SDS011;14507;52.418;13.398;2024-02-28T10:07:46;29.00;;;13.88;;
26951;SDS011;14507;52.418;13.398;2024-02-28T10:10:14;30.33;;;14.85;;
26951;SDS011;14507;52.418;13.398;2024-02-28T10:12:41;32.20;;;16.00;;
26951;SDS011;14507;52.418;13.398;2024-02-28T10:15:09;31.35;;;15.40;;
26951;SDS011;14507;52.418;13.398;2024-02-28T10:17:35;28.90;;;15.20;;
26951;SDS011;14507;52.418;13.398;2024-02-28T10:20:01;27.42;;;14.00;;
26951;SDS011;14507;52.418;13.398;2024-02-28T10:22:33;29.10;;;14.70;;
26951;SDS011;14507;52.418;13.398;2024-02-28T10:25:02;31.52;;;15.32;;
26951;SDS011;14507;52.418;13.398;2024-02-28T10:27:34;32.03;;;15.90;;
26951;SDS011;14507;52.418;13.398;2024-02-28T10:30:01;32.67;;;16.15;;
26951;SDS011;14507;52.418;13.398;2024-02-28T10:32:30;38.05;;;17.30;;
26951;SDS011;14507;52.418;13.398;2024-02-28T10:34:56;32.23;;;15.97;;
26951;SDS011;14507;52.418;13.398;2024-02-28T10:37:23;31.70;;;16.02;;
26951;SDS011;14507;52.418;13.398;2024-02-28T10:39:50;30.00;;;15.43;;
26951;SDS011;14507;52.418;13.398;2024-02-28T10:42:19;33.97;;;16.95;;
26951;SDS011;14507;52.418;13.398;2024-02-28T10:44:48;31.27;;;16.13;;
26951;SDS011;14507;52.418;13.398;2024-02-28T10:47:18;29.60;;;15.85;;
26951;SDS011;14507;52.418;13.398;2024-02-28T10:49:44;28.05;;;15.00;;
26951;SDS011;14507;52.418;13.398;2024-02-28T10:52:11;26.58;;;13.57;;
26951;SDS011;14507;52.418;13.398;2024-02-28T10:54:38;31.67;;;15.50;;
26951;SDS011;14507;52.418;13.398;2024-02-28T10:57:07;28.30;;;14.75;;
26951;SDS011;14507;52.418;13.398;2024-02-28T10:59:34;29.15;;;15.68;;
26951;SDS011;14507;52.418;13.398;2024-02-28T11:04:28;32.13;;;15.25;;
26951;SDS011;14507;52.418;13.398;2024-02-28T11:06:55;31.30;;;15.65;;
26951;SDS011;14507;52.418;13.398;2024-02-28T11:09:21;28.45;;;14.75;;
26951;SDS011;14507;52.418;13.398;2024-02-28T11:11:51;34.70;;;16.75;;
26951;SDS011;14507;52.418;13.398;2024-02-28T11:14:17;32.13;;;16.45;;
26951;SDS011;14507;52.418;13.398;2024-02-28T11:16:47;32.17;;;15.82;;
26951;SDS011;14507;52.418;13.398;2024-02-28T11:19:19;28.65;;;15.40;;
26951;SDS011;14507;52.418;13.398;2024-02-28T11:21:51;29.08;;;15.55;;
26951;SDS011;14507;52.418;13.398;2024-02-28T11:24:38;29.63;;;14.55;;
26951;SDS011;14507;52.418;13.398;2024-02-28T11:27:04;32.85;;;15.27;;
26951;SDS011;14507;52.418;13.398;2024-02-28T11:29:31;30.30;;;15.50;;
26951;SDS011;14507;52.418;13.398;2024-02-28T11:31:56;33.15;;;15.63;;
26951;SDS011;14507;52.418;13.398;2024-02-28T11:34:22;29.58;;;14.57;;
26951;SDS011;14507;52.418;13.398;2024-02-28T11:36:48;29.95;;;14.98;;
26951;SDS011;14507;52.418;13.398;2024-02-28T11:39:15;30.95;;;15.35;;
26951;SDS011;14507;52.418;13.398;2024-02-28T11:41:41;28.92;;;14.75;;
26951;SDS011;14507;52.418;13.398;2024-02-28T11:44:07;27.23;;;12.98;;
26951;SDS011;14507;52.418;13.398;2024-02-28T11:46:32;29.52;;;14.23;;
26951;SDS011;14507;52.418;13.398;2024-02-28T11:48:58;28.75;;;14.40;;
26951;SDS011;14507;52.418;13.398;2024-02-28T11:51:25;27.70;;;14.32;;
26951;SDS011;14507;52.418;13.398;2024-02-28T11:53:51;25.58;;;13.75;;
26951;SDS011;14507;52.418;13.398;2024-02-28T11:56:17;26.17;;;13.43;;
26951;SDS011;14507;52.418;13.398;2024-02-28T11:58:52;29.02;;;14.48;;
26951;SDS011;14507;52.418;13.398;2024-02-28T12:01:19;26.85;;;14.23;;
26951;SDS011;14507;52.418;13.398;2024-02-28T12:03:57;24.83;;;13.48;;
26951;SDS011;14507;52.418;13.398;2024-02-28T12:06:23;23.48;;;13.05;;
26951;SDS011;14507;52.418;13.398;2024-02-28T12:08:48;28.45;;;14.48;;
26951;SDS011;14507;52.418;13.398;2024-02-28T12:11:15;27.15;;;13.23;;
26951;SDS011;14507;52.418;13.398;2024-02-28T12:13:40;24.50;;;12.38;;
26951;SDS011;14507;52.418;13.398;2024-02-28T12:16:07;27.02;;;13.05;;
26951;SDS011;14507;52.418;13.398;2024-02-28T12:18:33;25.80;;;12.93;;
26951;SDS011;14507;52.418;13.398;2024-02-28T12:21:00;27.10;;;13.10;;
26951;SDS011;14507;52.418;13.398;2024-02-28T12:23:25;24.50;;;13.07;;
26951;SDS011;14507;52.418;13.398;2024-02-28T12:25:51;29.15;;;14.55;;
26951;SDS011;14507;52.418;13.398;2024-02-28T12:28:16;26.73;;;13.75;;
26951;SDS011;14507;52.418;13.398;2024-02-28T12:30:42;26.73;;;14.02;;
26951;SDS011;14507;52.418;13.398;2024-02-28T12:33:08;24.83;;;13.50;;
26951;SDS011;14507;52.418;13.398;2024-02-28T12:35:36;24.25;;;13.15;;
26951;SDS011;14507;52.418;13.398;2024-02-28T12:38:02;25.65;;;12.50;;
26951;SDS011;14507;52.418;13.398;2024-02-28T12:40:28;25.92;;;12.82;;
26951;SDS011;14507;52.418;13.398;2024-02-28T12:42:53;26.60;;;13.75;;
26951;SDS011;14507;52.418;13.398;2024-02-28T12:45:19;24.42;;;12.90;;
26951;SDS011;14507;52.418;13.398;2024-02-28T12:47:44;23.27;;;12.55;;
26951;SDS011;14507;52.418;13.398;2024-02-28T12:50:10;25.80;;;13.40;;
26951;SDS011;14507;52.418;13.398;2024-02-28T12:52:36;27.67;;;13.65;;
26951;SDS011;14507;52.418;13.398;2024-02-28T12:55:02;23.58;;;12.35;;
26951;SDS011;14507;52.418;13.398;2024-02-28T12:57:27;25.73;;;13.13;;
26951;SDS011;14507;52.418;13.398;2024-02-28T12:59:53;24.10;;;12.40;;
26951;SDS011;14507;52.418;13.398;2024-02-28T13:02:20;25.67;;;13.05;;
26951;SDS011;14507;52.418;13.398;2024-02-28T13:04:47;23.90;;;11.63;;
26951;SDS011;14507;52.418;13.398;2024-02-28T13:07:12;23.73;;;12.73;;
26951;SDS011;14507;52.418;13.398;2024-02-28T13:09:38;23.77;;;13.00;;
26951;SDS011;14507;52.418;13.398;2024-02-28T13:12:04;23.63;;;11.95;;
26951;SDS011;14507;52.418;13.398;2024-02-28T13:14:30;23.48;;;12.52;;
26951;SDS011;14507;52.418;13.398;2024-02-28T13:16:57;24.10;;;12.73;;
26951;SDS011;14507;52.418;13.398;2024-02-28T13:19:23;25.48;;;13.05;;
26951;SDS011;14507;52.418;13.398;2024-02-28T13:21:49;24.55;;;12.27;;
26951;SDS011;14507;52.418;13.398;2024-02-28T13:24:14;22.17;;;12.00;;
26951;SDS011;14507;52.418;13.398;2024-02-28T13:26:41;23.17;;;12.00;;
26951;SDS011;14507;52.418;13.398;2024-02-28T13:29:07;21.88;;;11.50;;
26951;SDS011;14507;52.418;13.398;2024-02-28T13:31:33;22.23;;;11.75;;
26951;SDS011;14507;52.418;13.398;2024-02-28T13:34:00;23.30;;;12.13;;
26951;SDS011;14507;52.418;13.398;2024-02-28T13:36:25;22.17;;;11.05;;
26951;SDS011;14507;52.418;13.398;2024-02-28T13:38:51;21.08;;;11.15;;
26951;SDS011;14507;52.418;13.398;2024-02-28T13:41:17;24.55;;;11.75;;
26951;SDS011;14507;52.418;13.398;2024-02-28T13:43:42;20.90;;;11.30;;
26951;SDS011;14507;52.418;13.398;2024-02-28T13:46:08;24.23;;;13.05;;
26951;SDS011;14507;52.418;13.398;2024-02-28T13:48:35;21.30;;;10.57;;
26951;SDS011;14507;52.418;13.398;2024-02-28T13:51:00;22.95;;;12.18;;
26951;SDS011;14507;52.418;13.398;2024-02-28T13:53:29;23.58;;;12.60;;
26951;SDS011;14507;52.418;13.398;2024-02-28T13:55:54;24.55;;;12.00;;
26951;SDS011;14507;52.418;13.398;2024-02-28T13:58:20;25.10;;;12.27;;
26951;SDS011;14507;52.418;13.398;2024-02-28T14:00:46;23.85;;;12.50;;
26951;SDS011;14507;52.418;13.398;2024-02-28T14:03:12;20.98;;;10.35;;
26951;SDS011;14507;52.418;13.398;2024-02-28T14:05:38;21.45;;;11.05;;
26951;SDS011;14507;52.418;13.398;2024-02-28T14:08:03;23.73;;;11.70;;
26951;SDS011;14507;52.418;13.398;2024-02-28T14:10:31;22.73;;;11.43;;